sensor_id;sensor_type;location;lat;lon;timestamp;pressure;altitude;pressure_sealevel;temperature;humidity
69879;BME280;57161;43.136;24.706;2022-10-13T00:00:39;100045.31;;;12.14;78.56
69879;BME280;57161;43.136;24.706;2022-10-13T00:03:04;100011.38;;;11.85;78.66
69879;BME280;57161;43.136;24.706;2022-10-13T00:05:30;100046.00;;;12.01;79.05
69879;BME280;57161;43.136;24.706;2022-10-13T00:07:56;100044.72;;;12.02;78.98
69879;BME280;57161;43.136;24.706;2022-10-13T00:10:23;100036.81;;;11.87;78.99
69879;BME280;57161;43.136;24.706;2022-10-13T00:12:49;100040.72;;;11.97;78.84
69879;BME280;57161;43.136;24.706;2022-10-13T00:15:15;100048.75;;;12.07;78.63
69879;BME280;57161;43.136;24.706;2022-10-13T00:17:40;100052.81;;;12.06;78.57
69879;BME280;57161;43.136;24.706;2022-10-13T00:20:07;100046.09;;;11.95;78.62
69879;BME280;57161;43.136;24.706;2022-10-13T00:22:33;100042.88;;;11.91;78.61
69879;BME280;57161;43.136;24.706;2022-10-13T00:24:59;100053.75;;;11.95;79.00
69879;BME280;57161;43.136;24.706;2022-10-13T00:27:24;100036.91;;;11.82;79.02
69879;BME280;57161;43.136;24.706;2022-10-13T00:29:50;100044.22;;;11.85;79.38
69879;BME280;57161;43.136;24.706;2022-10-13T00:32:15;100003.94;;;11.56;79.07
69879;BME280;57161;43.136;24.706;2022-10-13T00:34:43;100036.97;;;11.76;79.42
69879;BME280;57161;43.136;24.706;2022-10-13T00:37:09;100033.78;;;11.66;79.69
69879;BME280;57161;43.136;24.706;2022-10-13T00:39:35;100039.81;;;11.70;79.52
69879;BME280;57161;43.136;24.706;2022-10-13T00:42:01;100022.00;;;11.55;79.55
69879;BME280;57161;43.136;24.706;2022-10-13T00:45:06;100044.22;;;11.66;79.85
69879;BME280;57161;43.136;24.706;2022-10-13T00:47:41;100036.38;;;11.64;79.86
69879;BME280;57161;43.136;24.706;2022-10-13T00:50:14;100030.91;;;11.53;80.29
69879;BME280;57161;43.136;24.706;2022-10-13T00:52:41;100031.09;;;11.42;80.64
69879;BME280;57161;43.136;24.706;2022-10-13T00:55:08;100031.63;;;11.40;80.69
69879;BME280;57161;43.136;24.706;2022-10-13T00:57:37;100038.88;;;11.49;80.43
69879;BME280;57161;43.136;24.706;2022-10-13T01:00:05;100038.66;;;11.47;80.51
69879;BME280;57161;43.136;24.706;2022-10-13T01:02:34;100034.56;;;11.48;80.07
69879;BME280;57161;43.136;24.706;2022-10-13T01:05:01;100012.41;;;11.31;80.01
69879;BME280;57161;43.136;24.706;2022-10-13T01:07:28;100042.28;;;11.42;80.20
69879;BME280;57161;43.136;24.706;2022-10-13T01:09:54;100041.31;;;11.39;80.31
69879;BME280;57161;43.136;24.706;2022-10-13T01:15:25;100023.31;;;11.35;80.01
69879;BME280;57161;43.136;24.706;2022-10-13T01:29:04;100006.06;;;11.31;80.17
69879;BME280;57161;43.136;24.706;2022-10-13T01:34:29;100009.00;;;11.20;80.85
69879;BME280;57161;43.136;24.706;2022-10-13T01:39:34;99984.81;;;11.03;81.02
69879;BME280;57161;43.136;24.706;2022-10-13T01:42:13;99994.97;;;11.06;81.03
69879;BME280;57161;43.136;24.706;2022-10-13T01:44:45;100007.59;;;11.13;81.16
69879;BME280;57161;43.136;24.706;2022-10-13T01:47:14;99999.09;;;11.00;81.25
69879;BME280;57161;43.136;24.706;2022-10-13T01:49:41;99996.91;;;10.93;81.23
69879;BME280;57161;43.136;24.706;2022-10-13T01:52:11;100002.13;;;11.02;81.35
69879;BME280;57161;43.136;24.706;2022-10-13T01:54:38;100004.47;;;10.98;81.31
69879;BME280;57161;43.136;24.706;2022-10-13T01:57:03;100006.44;;;11.03;81.21
69879;BME280;57161;43.136;24.706;2022-10-13T01:59:31;99997.38;;;10.97;81.49
69879;BME280;57161;43.136;24.706;2022-10-13T02:02:20;99993.50;;;11.00;81.32
69879;BME280;57161;43.136;24.706;2022-10-13T02:05:32;99987.25;;;10.94;81.28
69879;BME280;57161;43.136;24.706;2022-10-13T02:08:17;99980.81;;;10.99;81.02
69879;BME280;57161;43.136;24.706;2022-10-13T02:10:55;99989.72;;;10.97;81.17
69879;BME280;57161;43.136;24.706;2022-10-13T02:13:25;99985.88;;;11.00;80.82
69879;BME280;57161;43.136;24.706;2022-10-13T02:15:54;99989.97;;;10.99;80.90
69879;BME280;57161;43.136;24.706;2022-10-13T02:18:27;99987.84;;;11.05;80.73
69879;BME280;57161;43.136;24.706;2022-10-13T02:20:54;99974.03;;;10.94;80.64
69879;BME280;57161;43.136;24.706;2022-10-13T02:23:20;99968.25;;;10.87;80.91
69879;BME280;57161;43.136;24.706;2022-10-13T02:25:46;99979.59;;;10.94;80.95
69879;BME280;57161;43.136;24.706;2022-10-13T02:28:13;99975.97;;;10.80;81.36
69879;BME280;57161;43.136;24.706;2022-10-13T02:30:39;99954.44;;;10.75;81.46
69879;BME280;57161;43.136;24.706;2022-10-13T02:33:06;99977.56;;;10.95;81.21
69879;BME280;57161;43.136;24.706;2022-10-13T02:35:32;99969.94;;;10.95;81.07
69879;BME280;57161;43.136;24.706;2022-10-13T02:37:58;99971.66;;;10.98;81.29
69879;BME280;57161;43.136;24.706;2022-10-13T02:40:24;99975.22;;;10.99;81.35
69879;BME280;57161;43.136;24.706;2022-10-13T02:42:50;99951.69;;;10.89;81.39
69879;BME280;57161;43.136;24.706;2022-10-13T02:45:16;99967.28;;;11.03;81.13
69879;BME280;57161;43.136;24.706;2022-10-13T02:47:41;99969.25;;;11.08;80.08
69879;BME280;57161;43.136;24.706;2022-10-13T02:50:07;99975.91;;;11.05;80.71
69879;BME280;57161;43.136;24.706;2022-10-13T02:52:33;99964.88;;;10.94;80.82
69879;BME280;57161;43.136;24.706;2022-10-13T02:54:58;99973.63;;;11.03;80.61
69879;BME280;57161;43.136;24.706;2022-10-13T02:57:24;99964.47;;;11.03;80.31
69879;BME280;57161;43.136;24.706;2022-10-13T02:59:50;99968.34;;;11.00;80.42
69879;BME280;57161;43.136;24.706;2022-10-13T03:02:16;99974.31;;;11.09;80.00
69879;BME280;57161;43.136;24.706;2022-10-13T03:04:41;99969.78;;;11.06;79.84
69879;BME280;57161;43.136;24.706;2022-10-13T03:07:07;99967.28;;;11.03;79.98
69879;BME280;57161;43.136;24.706;2022-10-13T03:09:32;99975.63;;;11.08;79.76
69879;BME280;57161;43.136;24.706;2022-10-13T03:11:58;99958.53;;;10.93;79.45
69879;BME280;57161;43.136;24.706;2022-10-13T03:14:23;99978.25;;;11.01;79.33
69879;BME280;57161;43.136;24.706;2022-10-13T03:16:49;99967.19;;;10.90;79.91
69879;BME280;57161;43.136;24.706;2022-10-13T03:19:14;99963.28;;;10.79;80.02
69879;BME280;57161;43.136;24.706;2022-10-13T03:21:40;99975.84;;;10.92;79.96
69879;BME280;57161;43.136;24.706;2022-10-13T03:24:05;99975.31;;;10.93;79.82
69879;BME280;57161;43.136;24.706;2022-10-13T03:26:31;99977.56;;;10.95;79.99
69879;BME280;57161;43.136;24.706;2022-10-13T03:28:57;99956.09;;;10.84;80.35
69879;BME280;57161;43.136;24.706;2022-10-13T03:31:22;99972.13;;;11.02;80.32
69879;BME280;57161;43.136;24.706;2022-10-13T03:33:48;99968.19;;;11.11;80.18
69879;BME280;57161;43.136;24.706;2022-10-13T03:36:13;99966.69;;;11.10;79.36
69879;BME280;57161;43.136;24.706;2022-10-13T03:38:39;99946.81;;;10.95;79.37
69879;BME280;57161;43.136;24.706;2022-10-13T03:41:15;99972.88;;;11.03;79.09
69879;BME280;57161;43.136;24.706;2022-10-13T03:43:42;99969.19;;;10.95;79.15
69879;BME280;57161;43.136;24.706;2022-10-13T03:46:09;99965.94;;;10.91;79.08
69879;BME280;57161;43.136;24.706;2022-10-13T03:48:36;99962.44;;;10.85;79.21
69879;BME280;57161;43.136;24.706;2022-10-13T03:51:09;99948.13;;;10.69;79.37
69879;BME280;57161;43.136;24.706;2022-10-13T03:53:36;99970.44;;;10.75;79.52
69879;BME280;57161;43.136;24.706;2022-10-13T03:56:03;99969.28;;;10.65;79.82
69879;BME280;57161;43.136;24.706;2022-10-13T03:58:29;99971.56;;;10.66;80.21
69879;BME280;57161;43.136;24.706;2022-10-13T04:00:56;99956.38;;;10.62;80.64
69879;BME280;57161;43.136;24.706;2022-10-13T04:03:22;99948.66;;;10.68;81.21
69879;BME280;57161;43.136;24.706;2022-10-13T04:05:48;99947.38;;;10.69;81.53
69879;BME280;57161;43.136;24.706;2022-10-13T04:08:14;99955.88;;;10.82;81.29
69879;BME280;57161;43.136;24.706;2022-10-13T04:10:39;99936.66;;;10.73;80.97
69879;BME280;57161;43.136;24.706;2022-10-13T04:13:05;99961.00;;;10.97;80.58
69879;BME280;57161;43.136;24.706;2022-10-13T04:15:35;99952.19;;;10.93;80.49
69879;BME280;57161;43.136;24.706;2022-10-13T04:18:01;99960.72;;;11.00;79.81
69879;BME280;57161;43.136;24.706;2022-10-13T04:20:27;99951.94;;;11.09;79.81
69879;BME280;57161;43.136;24.706;2022-10-13T04:22:52;99958.75;;;11.14;79.34
69879;BME280;57161;43.136;24.706;2022-10-13T04:25:18;99962.59;;;11.11;78.79
69879;BME280;57161;43.136;24.706;2022-10-13T04:27:43;99943.72;;;10.98;78.49
69879;BME280;57161;43.136;24.706;2022-10-13T04:30:09;99955.81;;;11.06;78.45
69879;BME280;57161;43.136;24.706;2022-10-13T04:32:35;99958.06;;;11.08;78.44
69879;BME280;57161;43.136;24.706;2022-10-13T04:35:00;99945.75;;;10.98;78.03
69879;BME280;57161;43.136;24.706;2022-10-13T04:37:26;99950.50;;;11.03;77.88
69879;BME280;57161;43.136;24.706;2022-10-13T04:39:51;99945.31;;;10.94;78.24
69879;BME280;57161;43.136;24.706;2022-10-13T04:42:17;99947.16;;;11.04;77.93
69879;BME280;57161;43.136;24.706;2022-10-13T04:44:42;99929.13;;;10.87;78.05
69879;BME280;57161;43.136;24.706;2022-10-13T04:47:07;99948.53;;;10.98;78.08
69879;BME280;57161;43.136;24.706;2022-10-13T04:49:33;99949.84;;;10.97;78.06
69879;BME280;57161;43.136;24.706;2022-10-13T04:51:58;99946.38;;;10.91;78.11
69879;BME280;57161;43.136;24.706;2022-10-13T04:54:24;99943.72;;;10.79;78.26
69879;BME280;57161;43.136;24.706;2022-10-13T04:56:49;99943.94;;;10.81;78.50
69879;BME280;57161;43.136;24.706;2022-10-13T04:59:15;99954.50;;;10.89;78.45
69879;BME280;57161;43.136;24.706;2022-10-13T05:01:40;99949.97;;;10.86;78.35
69879;BME280;57161;43.136;24.706;2022-10-13T05:04:06;99942.13;;;10.84;78.38
69879;BME280;57161;43.136;24.706;2022-10-13T05:06:36;99973.19;;;10.99;78.16
69879;BME280;57161;43.136;24.706;2022-10-13T05:09:02;99974.69;;;11.00;78.15
69879;BME280;57161;43.136;24.706;2022-10-13T05:11:28;99959.72;;;10.98;77.98
69879;BME280;57161;43.136;24.706;2022-10-13T05:13:55;99955.19;;;10.95;78.20
69879;BME280;57161;43.136;24.706;2022-10-13T05:16:21;99972.72;;;11.14;78.19
69879;BME280;57161;43.136;24.706;2022-10-13T05:18:48;99965.63;;;11.13;77.96
69879;BME280;57161;43.136;24.706;2022-10-13T05:21:19;99971.75;;;11.30;78.06
69879;BME280;57161;43.136;24.706;2022-10-13T05:23:46;99976.50;;;11.35;78.19
69879;BME280;57161;43.136;24.706;2022-10-13T05:26:14;99977.19;;;11.41;78.14
69879;BME280;57161;43.136;24.706;2022-10-13T05:28:40;99966.88;;;11.50;78.00
69879;BME280;57161;43.136;24.706;2022-10-13T05:31:20;99979.63;;;11.64;76.88
69879;BME280;57161;43.136;24.706;2022-10-13T05:33:46;99987.94;;;11.69;76.69
69879;BME280;57161;43.136;24.706;2022-10-13T05:36:21;99973.81;;;11.62;76.24
69879;BME280;57161;43.136;24.706;2022-10-13T05:38:55;99989.16;;;11.74;75.20
69879;BME280;57161;43.136;24.706;2022-10-13T05:41:21;99983.94;;;11.65;75.16
69879;BME280;57161;43.136;24.706;2022-10-13T05:43:54;99987.19;;;11.69;75.27
69879;BME280;57161;43.136;24.706;2022-10-13T05:46:24;99997.56;;;11.74;75.26
69879;BME280;57161;43.136;24.706;2022-10-13T05:48:50;100000.50;;;11.82;75.82
69879;BME280;57161;43.136;24.706;2022-10-13T05:51:19;99997.47;;;11.80;75.69
69879;BME280;57161;43.136;24.706;2022-10-13T05:53:50;100000.53;;;11.95;75.28
69879;BME280;57161;43.136;24.706;2022-10-13T05:56:20;100005.22;;;12.06;75.29
69879;BME280;57161;43.136;24.706;2022-10-13T05:58:52;100005.09;;;12.11;74.58
69879;BME280;57161;43.136;24.706;2022-10-13T06:01:20;100015.38;;;12.22;74.27
69879;BME280;57161;43.136;24.706;2022-10-13T06:03:47;100013.44;;;12.30;74.08
69879;BME280;57161;43.136;24.706;2022-10-13T06:06:14;100001.91;;;12.33;73.70
69879;BME280;57161;43.136;24.706;2022-10-13T06:08:40;100019.41;;;12.53;73.47
69879;BME280;57161;43.136;24.706;2022-10-13T06:11:07;100012.59;;;12.61;72.87
69879;BME280;57161;43.136;24.706;2022-10-13T06:13:32;100023.41;;;12.71;72.64
69879;BME280;57161;43.136;24.706;2022-10-13T06:15:58;100007.13;;;12.69;72.36
69879;BME280;57161;43.136;24.706;2022-10-13T06:18:23;100000.97;;;12.71;72.46
69879;BME280;57161;43.136;24.706;2022-10-13T06:20:49;99949.41;;;12.34;72.45
69879;BME280;57161;43.136;24.706;2022-10-13T06:23:14;100014.22;;;12.83;72.31
69879;BME280;57161;43.136;24.706;2022-10-13T06:25:49;100009.03;;;12.87;72.22
69879;BME280;57161;43.136;24.706;2022-10-13T06:28:15;100002.78;;;12.81;72.39
69879;BME280;57161;43.136;24.706;2022-10-13T06:30:47;100006.34;;;12.82;72.32
69879;BME280;57161;43.136;24.706;2022-10-13T06:33:24;100009.03;;;12.87;72.53
69879;BME280;57161;43.136;24.706;2022-10-13T06:35:51;100025.53;;;12.91;72.39
69879;BME280;57161;43.136;24.706;2022-10-13T06:38:17;100016.03;;;12.94;72.66
69879;BME280;57161;43.136;24.706;2022-10-13T06:40:43;100013.00;;;13.05;72.28
69879;BME280;57161;43.136;24.706;2022-10-13T06:43:08;99980.75;;;12.99;71.76
69879;BME280;57161;43.136;24.706;2022-10-13T06:45:34;100009.34;;;13.24;71.10
69879;BME280;57161;43.136;24.706;2022-10-13T06:47:59;100012.56;;;13.28;71.06
69879;BME280;57161;43.136;24.706;2022-10-13T06:50:25;100015.56;;;13.30;70.80
69879;BME280;57161;43.136;24.706;2022-10-13T06:52:51;100002.84;;;13.15;70.86
69879;BME280;57161;43.136;24.706;2022-10-13T06:55:16;100002.63;;;13.27;70.88
69879;BME280;57161;43.136;24.706;2022-10-13T06:57:42;100024.81;;;13.51;70.07
69879;BME280;57161;43.136;24.706;2022-10-13T07:00:08;100015.28;;;13.54;69.41
69879;BME280;57161;43.136;24.706;2022-10-13T07:02:34;100007.34;;;13.66;69.63
69879;BME280;57161;43.136;24.706;2022-10-13T07:04:59;100033.28;;;13.93;69.31
69879;BME280;57161;43.136;24.706;2022-10-13T07:07:25;100016.81;;;13.97;69.38
69879;BME280;57161;43.136;24.706;2022-10-13T07:09:50;100027.38;;;14.04;69.37
69879;BME280;57161;43.136;24.706;2022-10-13T07:12:16;100009.72;;;14.17;69.40
69879;BME280;57161;43.136;24.706;2022-10-13T07:14:41;100002.72;;;14.10;69.59
69879;BME280;57161;43.136;24.706;2022-10-13T07:17:07;100009.41;;;14.28;69.65
69879;BME280;57161;43.136;24.706;2022-10-13T07:19:32;99997.69;;;14.37;68.74
69879;BME280;57161;43.136;24.706;2022-10-13T07:21:58;99984.66;;;14.26;67.69
69879;BME280;57161;43.136;24.706;2022-10-13T07:24:23;99974.72;;;14.25;67.56
69879;BME280;57161;43.136;24.706;2022-10-13T07:26:49;100018.63;;;14.57;66.76
69879;BME280;57161;43.136;24.706;2022-10-13T07:29:15;99959.53;;;14.21;66.70
69879;BME280;57161;43.136;24.706;2022-10-13T07:31:44;100013.78;;;14.57;67.03
69879;BME280;57161;43.136;24.706;2022-10-13T07:34:10;100015.53;;;14.68;67.13
69879;BME280;57161;43.136;24.706;2022-10-13T07:36:35;100005.59;;;14.67;67.00
69879;BME280;57161;43.136;24.706;2022-10-13T07:39:05;100013.97;;;14.95;67.05
69879;BME280;57161;43.136;24.706;2022-10-13T07:41:30;100008.78;;;15.07;67.15
69879;BME280;57161;43.136;24.706;2022-10-13T07:43:56;99999.28;;;15.18;66.38
69879;BME280;57161;43.136;24.706;2022-10-13T07:46:21;100011.28;;;15.26;66.61
69879;BME280;57161;43.136;24.706;2022-10-13T07:48:47;100019.78;;;15.34;66.49
69879;BME280;57161;43.136;24.706;2022-10-13T07:51:13;100006.09;;;15.45;66.15
69879;BME280;57161;43.136;24.706;2022-10-13T07:53:40;100008.63;;;15.64;65.71
69879;BME280;57161;43.136;24.706;2022-10-13T07:56:09;100010.53;;;15.84;64.49
69879;BME280;57161;43.136;24.706;2022-10-13T07:58:36;99972.41;;;15.68;64.11
69879;BME280;57161;43.136;24.706;2022-10-13T08:01:03;100006.25;;;15.99;64.14
69879;BME280;57161;43.136;24.706;2022-10-13T08:03:28;99998.34;;;16.12;63.90
69879;BME280;57161;43.136;24.706;2022-10-13T08:05:54;99998.91;;;16.26;63.47
69879;BME280;57161;43.136;24.706;2022-10-13T08:08:20;100009.97;;;16.47;62.64
69879;BME280;57161;43.136;24.706;2022-10-13T08:10:46;100009.78;;;16.60;61.92
69879;BME280;57161;43.136;24.706;2022-10-13T08:13:12;100006.19;;;16.75;61.22
69879;BME280;57161;43.136;24.706;2022-10-13T08:15:39;100002.56;;;16.90;60.71
69879;BME280;57161;43.136;24.706;2022-10-13T08:18:05;99988.25;;;16.95;60.29
69879;BME280;57161;43.136;24.706;2022-10-13T08:20:31;99992.31;;;17.17;58.75
69879;BME280;57161;43.136;24.706;2022-10-13T08:22:56;99991.22;;;17.13;57.36
69879;BME280;57161;43.136;24.706;2022-10-13T08:25:22;99983.09;;;17.17;57.14
69879;BME280;57161;43.136;24.706;2022-10-13T08:27:47;99984.97;;;17.14;56.60
69879;BME280;57161;43.136;24.706;2022-10-13T08:30:13;99986.41;;;17.30;56.38
69879;BME280;57161;43.136;24.706;2022-10-13T08:32:38;99994.41;;;17.49;56.34
69879;BME280;57161;43.136;24.706;2022-10-13T08:35:04;99969.41;;;17.38;55.35
69879;BME280;57161;43.136;24.706;2022-10-13T08:37:29;99979.19;;;17.45;56.25
69879;BME280;57161;43.136;24.706;2022-10-13T08:39:55;99935.25;;;17.19;55.81
69879;BME280;57161;43.136;24.706;2022-10-13T08:42:21;99988.34;;;17.53;56.49
69879;BME280;57161;43.136;24.706;2022-10-13T08:44:53;99998.16;;;17.52;56.86
69879;BME280;57161;43.136;24.706;2022-10-13T08:47:23;99997.56;;;17.61;55.60
69879;BME280;57161;43.136;24.706;2022-10-13T08:49:56;99992.63;;;17.69;55.76
69879;BME280;57161;43.136;24.706;2022-10-13T08:52:25;99981.69;;;17.65;56.14
69879;BME280;57161;43.136;24.706;2022-10-13T08:54:53;100000.38;;;17.93;55.98
69879;BME280;57161;43.136;24.706;2022-10-13T08:57:19;99992.28;;;18.15;55.08
69879;BME280;57161;43.136;24.706;2022-10-13T08:59:46;99998.28;;;18.19;55.26
69879;BME280;57161;43.136;24.706;2022-10-13T09:02:29;99990.19;;;18.40;55.08
69879;BME280;57161;43.136;24.706;2022-10-13T09:04:57;99981.84;;;18.42;55.14
69879;BME280;57161;43.136;24.706;2022-10-13T09:07:30;99987.63;;;18.69;54.91
69879;BME280;57161;43.136;24.706;2022-10-13T09:09:56;99951.31;;;18.58;54.45
69879;BME280;57161;43.136;24.706;2022-10-13T09:12:23;99966.09;;;18.74;54.22
69879;BME280;57161;43.136;24.706;2022-10-13T09:14:58;99985.38;;;18.85;54.00
69879;BME280;57161;43.136;24.706;2022-10-13T09:17:26;99982.72;;;19.04;53.53
69879;BME280;57161;43.136;24.706;2022-10-13T09:20:04;99979.69;;;19.02;53.68
69879;BME280;57161;43.136;24.706;2022-10-13T09:22:38;99955.25;;;18.80;53.93
69879;BME280;57161;43.136;24.706;2022-10-13T09:27:44;99978.44;;;19.13;53.67
69879;BME280;57161;43.136;24.706;2022-10-13T09:32:58;99954.56;;;19.06;53.02
69879;BME280;57161;43.136;24.706;2022-10-13T09:35:29;99962.66;;;19.37;53.51
69879;BME280;57161;43.136;24.706;2022-10-13T09:40:27;99966.13;;;19.72;51.96
69879;BME280;57161;43.136;24.706;2022-10-13T09:42:57;99960.81;;;19.86;52.18
69879;BME280;57161;43.136;24.706;2022-10-13T09:45:25;99950.88;;;19.67;51.96
69879;BME280;57161;43.136;24.706;2022-10-13T09:48:15;99958.44;;;19.55;52.46
69879;BME280;57161;43.136;24.706;2022-10-13T09:50:47;99949.19;;;19.55;52.56
69879;BME280;57161;43.136;24.706;2022-10-13T09:55:39;99942.22;;;19.38;52.89
69879;BME280;57161;43.136;24.706;2022-10-13T09:58:29;99945.50;;;19.62;52.62
69879;BME280;57161;43.136;24.706;2022-10-13T10:00:57;99931.38;;;19.44;52.24
69879;BME280;57161;43.136;24.706;2022-10-13T10:03:33;99950.41;;;19.61;52.62
69879;BME280;57161;43.136;24.706;2022-10-13T10:06:02;99929.28;;;19.82;52.49
69879;BME280;57161;43.136;24.706;2022-10-13T10:09:00;99945.31;;;19.96;51.16
69879;BME280;57161;43.136;24.706;2022-10-13T10:11:40;99951.13;;;19.98;51.82
69879;BME280;57161;43.136;24.706;2022-10-13T10:14:28;99941.78;;;20.05;51.32
69879;BME280;57161;43.136;24.706;2022-10-13T10:27:41;99902.50;;;20.02;50.91
69879;BME280;57161;43.136;24.706;2022-10-13T10:30:13;99899.34;;;19.98;50.34
69879;BME280;57161;43.136;24.706;2022-10-13T10:32:53;99902.50;;;20.02;50.09
69879;BME280;57161;43.136;24.706;2022-10-13T10:46:15;99884.00;;;20.11;49.07
69879;BME280;57161;43.136;24.706;2022-10-13T10:48:43;99882.69;;;20.21;49.57
69879;BME280;57161;43.136;24.706;2022-10-13T10:51:10;99872.66;;;20.30;49.79
69879;BME280;57161;43.136;24.706;2022-10-13T10:56:44;99873.88;;;20.46;48.13
69879;BME280;57161;43.136;24.706;2022-10-13T10:59:36;99860.59;;;20.49;48.30
69879;BME280;57161;43.136;24.706;2022-10-13T11:04:45;99857.19;;;20.50;48.32
69879;BME280;57161;43.136;24.706;2022-10-13T11:15:23;99850.06;;;20.90;47.87
69879;BME280;57161;43.136;24.706;2022-10-13T11:17:49;99850.41;;;20.84;47.67
69879;BME280;57161;43.136;24.706;2022-10-13T11:36:43;99820.44;;;21.03;46.58
69879;BME280;57161;43.136;24.706;2022-10-13T11:44:52;99804.31;;;20.95;47.24
69879;BME280;57161;43.136;24.706;2022-10-13T11:50:39;99805.50;;;21.02;47.03
69879;BME280;57161;43.136;24.706;2022-10-13T11:53:25;99798.34;;;21.01;46.99
69879;BME280;57161;43.136;24.706;2022-10-13T11:55:55;99798.00;;;21.07;46.87
69879;BME280;57161;43.136;24.706;2022-10-13T11:58:30;99788.41;;;21.12;46.93
69879;BME280;57161;43.136;24.706;2022-10-13T12:01:05;99777.75;;;21.22;46.58
69879;BME280;57161;43.136;24.706;2022-10-13T12:03:34;99767.47;;;21.17;46.82
69879;BME280;57161;43.136;24.706;2022-10-13T12:06:06;99774.72;;;21.30;45.09
69879;BME280;57161;43.136;24.706;2022-10-13T12:08:45;99764.59;;;21.26;44.97
69879;BME280;57161;43.136;24.706;2022-10-13T12:11:26;99726.88;;;20.95;44.93
69879;BME280;57161;43.136;24.706;2022-10-13T12:13:53;99753.66;;;21.23;44.42
69879;BME280;57161;43.136;24.706;2022-10-13T12:16:19;99762.94;;;21.23;44.15
69879;BME280;57161;43.136;24.706;2022-10-13T12:18:45;99769.41;;;21.14;43.51
69879;BME280;57161;43.136;24.706;2022-10-13T12:21:12;99780.19;;;21.16;43.50
69879;BME280;57161;43.136;24.706;2022-10-13T12:23:38;99756.47;;;21.02;43.05
69879;BME280;57161;43.136;24.706;2022-10-13T12:26:04;99746.53;;;21.12;43.40
69879;BME280;57161;43.136;24.706;2022-10-13T12:31:17;99765.34;;;21.27;42.93
69879;BME280;57161;43.136;24.706;2022-10-13T12:33:51;99757.25;;;21.33;41.92
69879;BME280;57161;43.136;24.706;2022-10-13T12:36:19;99767.88;;;21.54;41.28
69879;BME280;57161;43.136;24.706;2022-10-13T12:38:51;99768.13;;;21.37;41.01
69879;BME280;57161;43.136;24.706;2022-10-13T12:41:32;99768.25;;;21.39;41.46
69879;BME280;57161;43.136;24.706;2022-10-13T12:43:58;99756.50;;;21.33;41.05
69879;BME280;57161;43.136;24.706;2022-10-13T12:46:44;99764.56;;;21.57;41.15
69879;BME280;57161;43.136;24.706;2022-10-13T12:51:46;99771.00;;;21.27;41.39
69879;BME280;57161;43.136;24.706;2022-10-13T12:54:33;99763.94;;;21.38;41.53
69879;BME280;57161;43.136;24.706;2022-10-13T12:57:14;99740.63;;;21.30;41.18
69879;BME280;57161;43.136;24.706;2022-10-13T12:59:41;99752.47;;;21.26;41.61
69879;BME280;57161;43.136;24.706;2022-10-13T13:02:33;99751.06;;;21.37;41.77
69879;BME280;57161;43.136;24.706;2022-10-13T13:04:59;99729.91;;;21.18;42.14
69879;BME280;57161;43.136;24.706;2022-10-13T13:07:32;99753.50;;;21.31;42.56
69879;BME280;57161;43.136;24.706;2022-10-13T13:10:13;99731.41;;;21.19;42.57
69879;BME280;57161;43.136;24.706;2022-10-13T13:12:39;99734.50;;;21.33;41.94
69879;BME280;57161;43.136;24.706;2022-10-13T13:17:50;99737.03;;;20.98;43.07
69879;BME280;57161;43.136;24.706;2022-10-13T13:22:44;99734.00;;;21.06;42.87
69879;BME280;57161;43.136;24.706;2022-10-13T13:25:10;99748.31;;;21.17;42.81
69879;BME280;57161;43.136;24.706;2022-10-13T13:27:38;99706.22;;;21.04;42.32
69879;BME280;57161;43.136;24.706;2022-10-13T13:30:10;99738.56;;;21.20;42.47
69879;BME280;57161;43.136;24.706;2022-10-13T13:32:36;99732.31;;;21.12;41.74
69879;BME280;57161;43.136;24.706;2022-10-13T13:35:03;99715.22;;;21.01;42.33
69879;BME280;57161;43.136;24.706;2022-10-13T13:37:39;99726.97;;;21.07;41.89
69879;BME280;57161;43.136;24.706;2022-10-13T13:40:09;99723.88;;;21.03;42.39
69879;BME280;57161;43.136;24.706;2022-10-13T13:42:38;99713.84;;;21.02;42.08
69879;BME280;57161;43.136;24.706;2022-10-13T13:45:03;99727.91;;;21.00;42.57
69879;BME280;57161;43.136;24.706;2022-10-13T13:47:29;99726.28;;;20.96;42.29
69879;BME280;57161;43.136;24.706;2022-10-13T13:49:55;99662.50;;;20.57;42.54
69879;BME280;57161;43.136;24.706;2022-10-13T13:52:22;99720.03;;;20.88;42.77
69879;BME280;57161;43.136;24.706;2022-10-13T13:54:48;99713.56;;;20.97;42.73
69879;BME280;57161;43.136;24.706;2022-10-13T13:57:18;99729.81;;;21.07;42.11
69879;BME280;57161;43.136;24.706;2022-10-13T13:59:44;99704.16;;;20.95;42.08
69879;BME280;57161;43.136;24.706;2022-10-13T14:02:14;99722.31;;;20.80;42.21
69879;BME280;57161;43.136;24.706;2022-10-13T14:04:39;99722.63;;;20.75;42.49
69879;BME280;57161;43.136;24.706;2022-10-13T14:07:05;99711.03;;;20.61;42.57
69879;BME280;57161;43.136;24.706;2022-10-13T14:09:30;99691.66;;;20.38;42.61
69879;BME280;57161;43.136;24.706;2022-10-13T14:11:56;99720.28;;;20.61;41.83
69879;BME280;57161;43.136;24.706;2022-10-13T14:14:21;99705.25;;;20.39;42.06
69879;BME280;57161;43.136;24.706;2022-10-13T14:16:49;99722.25;;;20.39;42.29
69879;BME280;57161;43.136;24.706;2022-10-13T14:19:15;99706.88;;;20.33;42.40
69879;BME280;57161;43.136;24.706;2022-10-13T14:21:40;99699.63;;;20.20;41.88
69879;BME280;57161;43.136;24.706;2022-10-13T14:24:06;99719.63;;;20.22;42.15
69879;BME280;57161;43.136;24.706;2022-10-13T14:26:32;99712.00;;;20.15;41.93
69879;BME280;57161;43.136;24.706;2022-10-13T14:28:57;99721.72;;;20.22;41.98
69879;BME280;57161;43.136;24.706;2022-10-13T14:31:23;99713.81;;;20.11;42.11
69879;BME280;57161;43.136;24.706;2022-10-13T14:33:48;99721.09;;;20.23;42.02
69879;BME280;57161;43.136;24.706;2022-10-13T14:36:14;99717.06;;;20.26;41.49